createdAt,value
2017-06-02T00:00:46.771Z,20.90
2017-06-02T00:03:15.585Z,20.90
2017-06-02T00:05:44.402Z,20.80
2017-06-02T00:08:13.235Z,20.90
2017-06-02T00:10:42.100Z,20.80
2017-06-02T00:13:10.928Z,20.80
2017-06-02T00:15:39.771Z,20.70
2017-06-02T00:18:08.595Z,20.60
2017-06-02T00:20:37.447Z,20.60
2017-06-02T00:23:06.267Z,20.70
2017-06-02T00:25:35.088Z,20.70
2017-06-02T00:28:03.917Z,20.70
2017-06-02T00:30:32.748Z,20.70
2017-06-02T00:33:01.580Z,20.70
2017-06-02T00:35:30.408Z,20.70
2017-06-02T00:37:59.224Z,20.70
2017-06-02T00:40:28.138Z,20.80
2017-06-02T00:42:56.947Z,20.90
2017-06-02T00:45:25.788Z,20.90
2017-06-02T00:47:54.625Z,20.90
2017-06-02T00:50:23.447Z,21.00
2017-06-02T00:52:52.292Z,21.10
2017-06-02T00:55:21.129Z,21.00
2017-06-02T00:57:49.938Z,21.10
2017-06-02T01:00:18.755Z,21.00
2017-06-02T01:02:47.591Z,21.00
2017-06-02T01:05:16.418Z,21.00
2017-06-02T01:07:45.242Z,21.00
2017-06-02T01:10:14.083Z,21.10
2017-06-02T01:12:42.943Z,21.10
2017-06-02T01:15:11.790Z,21.00
2017-06-02T01:17:40.632Z,21.00
2017-06-02T01:20:09.479Z,20.90
2017-06-02T01:22:38.275Z,20.90
2017-06-02T01:25:07.091Z,20.80
2017-06-02T01:27:35.931Z,20.80
2017-06-02T01:30:04.739Z,20.70
2017-06-02T01:32:33.555Z,20.60
2017-06-02T01:35:02.396Z,20.60
2017-06-02T01:37:31.222Z,20.70
2017-06-02T01:40:00.023Z,20.70
2017-06-02T01:42:28.867Z,20.70
2017-06-02T01:44:57.707Z,20.70
2017-06-02T01:47:26.520Z,20.70
2017-06-02T01:49:55.343Z,20.80
2017-06-02T01:52:24.535Z,20.70
2017-06-02T01:54:53.352Z,20.60
2017-06-02T01:57:22.178Z,20.60
2017-06-02T01:59:51.011Z,20.50
2017-06-02T02:02:19.820Z,20.50
2017-06-02T02:04:48.662Z,20.50
2017-06-02T02:07:17.470Z,20.40
2017-06-02T02:09:46.287Z,20.40
2017-06-02T02:12:15.112Z,20.50
2017-06-02T02:14:44.678Z,20.50
2017-06-02T02:17:13.513Z,20.60
2017-06-02T02:19:42.339Z,20.60
2017-06-02T02:22:11.144Z,20.70
2017-06-02T02:24:39.969Z,20.70
2017-06-02T02:27:08.787Z,20.70
2017-06-02T02:29:37.612Z,20.70
2017-06-02T02:32:06.429Z,20.80
2017-06-02T02:34:35.276Z,20.70
2017-06-02T02:37:04.100Z,20.70
2017-06-02T02:39:32.928Z,20.60
2017-06-02T02:42:01.752Z,20.60
2017-06-02T02:44:30.672Z,20.60
2017-06-02T02:46:59.476Z,20.60
2017-06-02T02:49:28.331Z,20.70
2017-06-02T02:51:57.163Z,20.70
2017-06-02T02:54:25.978Z,20.70
2017-06-02T02:56:54.820Z,20.70
2017-06-02T02:59:23.675Z,20.60
2017-06-02T03:01:52.518Z,20.60
2017-06-02T03:04:21.343Z,20.70
2017-06-02T03:06:50.161Z,20.70
2017-06-02T03:09:19.007Z,20.60
2017-06-02T03:11:47.830Z,20.60
2017-06-02T03:14:16.643Z,20.50
2017-06-02T03:16:45.483Z,20.50
2017-06-02T03:19:14.295Z,20.50
2017-06-02T03:21:43.124Z,20.50
2017-06-02T03:24:11.959Z,20.50
2017-06-02T03:26:40.781Z,20.60
2017-06-02T03:29:09.623Z,20.60
2017-06-02T03:31:38.428Z,20.60
2017-06-02T03:34:07.251Z,20.60
2017-06-02T03:36:36.087Z,20.60
2017-06-02T03:39:04.895Z,20.60
2017-06-02T03:41:33.745Z,20.60
2017-06-02T03:44:02.559Z,20.60
2017-06-02T03:46:31.370Z,20.60
2017-06-02T03:49:00.195Z,20.60
2017-06-02T03:51:29.063Z,20.60
2017-06-02T03:53:57.883Z,20.50
2017-06-02T03:56:26.704Z,20.50
2017-06-02T03:58:55.552Z,20.50
2017-06-02T04:01:24.351Z,20.40
2017-06-02T04:03:53.173Z,20.40
2017-06-02T04:06:22.000Z,20.50
2017-06-02T04:08:50.823Z,20.50
2017-06-02T04:11:19.624Z,20.60
2017-06-02T04:13:48.472Z,20.70
2017-06-02T04:16:17.283Z,20.80
2017-06-02T04:18:46.102Z,20.80
2017-06-02T04:21:14.994Z,20.90
2017-06-02T04:23:43.787Z,21.00
2017-06-02T04:26:12.609Z,21.10
2017-06-02T04:28:41.435Z,21.10
2017-06-02T04:31:10.254Z,21.20
2017-06-02T04:33:39.067Z,21.20
2017-06-02T04:36:07.890Z,21.10
2017-06-02T04:38:36.699Z,21.10
2017-06-02T04:41:05.559Z,21.10
2017-06-02T04:43:34.375Z,21.10
2017-06-02T04:46:03.211Z,21.10
2017-06-02T04:48:32.054Z,21.10
2017-06-02T04:51:00.877Z,21.20
2017-06-02T04:53:29.695Z,21.20
2017-06-02T04:55:58.526Z,21.30
2017-06-02T04:58:27.350Z,21.40
2017-06-02T05:00:56.187Z,21.60
2017-06-02T05:03:25.003Z,21.70
2017-06-02T05:05:53.822Z,21.80
2017-06-02T05:08:22.667Z,21.90
2017-06-02T05:10:51.481Z,21.90
2017-06-02T05:13:20.287Z,22.00
2017-06-02T05:15:49.147Z,22.00
2017-06-02T05:18:17.967Z,21.90
2017-06-02T05:20:46.769Z,22.00
2017-06-02T05:23:15.609Z,22.10
2017-06-02T05:25:44.515Z,22.30
2017-06-02T05:28:13.348Z,22.50
2017-06-02T05:30:42.179Z,22.60
2017-06-02T05:33:11.017Z,22.70
2017-06-02T05:35:39.844Z,22.70
2017-06-02T05:38:08.672Z,22.70
2017-06-02T05:40:37.495Z,22.80
2017-06-02T05:43:06.329Z,22.90
2017-06-02T05:45:35.160Z,23.00
2017-06-02T05:48:03.981Z,23.10
2017-06-02T05:50:32.791Z,23.10
2017-06-02T05:53:01.634Z,23.20
2017-06-02T05:55:30.481Z,23.10
2017-06-02T05:58:04.334Z,23.00
2017-06-02T06:00:33.174Z,23.00
2017-06-02T06:03:01.991Z,22.90
2017-06-02T06:05:30.803Z,22.90
2017-06-02T06:07:59.630Z,22.90
2017-06-02T06:10:28.471Z,22.80
2017-06-02T06:12:57.295Z,22.80
2017-06-02T06:15:26.129Z,22.60
2017-06-02T06:17:54.963Z,22.60
2017-06-02T06:20:23.787Z,22.50
2017-06-02T06:22:52.615Z,22.40
2017-06-02T06:25:21.451Z,22.40
2017-06-02T06:27:50.290Z,22.30
2017-06-02T06:30:19.119Z,22.40
2017-06-02T06:32:47.948Z,22.60
2017-06-02T06:35:16.770Z,22.90
2017-06-02T06:37:45.599Z,22.90
2017-06-02T06:40:14.425Z,22.90
2017-06-02T06:42:43.671Z,22.80
2017-06-02T06:45:12.482Z,22.80
2017-06-02T06:47:41.324Z,22.80
2017-06-02T06:50:10.156Z,22.90
2017-06-02T06:52:38.979Z,23.10
2017-06-02T06:55:07.786Z,23.10
2017-06-02T06:57:36.618Z,23.20
2017-06-02T07:00:05.508Z,23.30
2017-06-02T07:02:34.358Z,23.40
2017-06-02T07:05:03.168Z,23.40
2017-06-02T07:07:31.996Z,23.50
2017-06-02T07:10:00.824Z,23.70
2017-06-02T07:12:29.632Z,23.40
2017-06-02T07:14:58.491Z,23.40
2017-06-02T07:17:27.307Z,23.60
2017-06-02T07:19:56.118Z,23.60
2017-06-02T07:22:24.953Z,23.70
2017-06-02T07:24:53.779Z,23.90
2017-06-02T07:27:22.595Z,24.10
2017-06-02T07:29:51.440Z,24.20
2017-06-02T07:32:20.263Z,24.10
2017-06-02T07:34:49.083Z,24.20
2017-06-02T07:37:17.920Z,24.30
2017-06-02T07:39:46.726Z,24.50
2017-06-02T07:42:15.559Z,24.70
2017-06-02T07:44:44.389Z,24.90
2017-06-02T07:47:13.243Z,25.00
2017-06-02T07:49:42.058Z,25.10
2017-06-02T07:52:10.882Z,25.20
2017-06-02T07:54:39.709Z,25.40
2017-06-02T07:57:08.512Z,25.50
2017-06-02T07:59:37.330Z,25.50
2017-06-02T08:02:06.154Z,25.60
2017-06-02T08:04:34.983Z,25.70
2017-06-02T08:07:03.786Z,25.80
2017-06-02T08:09:32.605Z,26.10
2017-06-02T08:12:01.438Z,26.40
2017-06-02T08:14:30.248Z,26.60
2017-06-02T08:16:59.071Z,26.80
2017-06-02T08:19:27.886Z,27.00
2017-06-02T08:21:56.691Z,27.00
2017-06-02T08:24:25.515Z,27.00
2017-06-02T08:26:54.332Z,27.30
2017-06-02T08:29:23.143Z,27.50
2017-06-02T08:31:51.975Z,27.50
2017-06-02T08:34:20.791Z,27.60
2017-06-02T08:36:49.634Z,27.80
2017-06-02T08:39:18.456Z,28.10
2017-06-02T08:41:47.282Z,28.20
2017-06-02T08:44:16.111Z,28.40
2017-06-02T08:46:44.927Z,28.80
2017-06-02T08:49:13.735Z,29.20
2017-06-02T08:51:42.571Z,29.60
2017-06-02T08:54:11.383Z,29.50
2017-06-02T08:56:40.196Z,29.40
2017-06-02T08:59:09.015Z,29.60
2017-06-02T09:01:37.827Z,29.60
2017-06-02T09:04:06.640Z,29.60
2017-06-02T09:06:35.454Z,29.80
2017-06-02T09:09:04.309Z,29.90
2017-06-02T09:11:33.124Z,30.00
2017-06-02T09:14:01.924Z,30.60
2017-06-02T09:16:30.858Z,32.40
2017-06-02T09:18:59.650Z,34.60
2017-06-02T09:21:28.467Z,37.10
2017-06-02T09:23:57.295Z,39.10
2017-06-02T09:26:26.209Z,40.90
2017-06-02T09:28:55.015Z,42.40
2017-06-02T09:31:23.838Z,43.20
2017-06-02T09:33:52.646Z,43.90
2017-06-02T09:36:21.475Z,45.20
2017-06-02T09:38:50.287Z,46.70
2017-06-02T09:41:19.103Z,47.20
2017-06-02T09:43:47.934Z,48.00
2017-06-02T09:46:16.757Z,48.00
2017-06-02T09:48:45.580Z,48.40
2017-06-02T09:51:14.399Z,48.90
2017-06-02T09:53:43.210Z,48.60
2017-06-02T09:56:12.034Z,48.30
2017-06-02T09:58:40.839Z,48.10
2017-06-02T10:01:09.651Z,47.90
2017-06-02T10:03:38.491Z,48.50
2017-06-02T10:06:07.309Z,49.20
2017-06-02T10:08:36.115Z,49.40
2017-06-02T10:11:04.923Z,49.60
2017-06-02T10:13:33.751Z,50.20
2017-06-02T10:16:02.592Z,49.20
2017-06-02T10:18:31.404Z,49.30
2017-06-02T10:21:00.215Z,50.00
2017-06-02T10:23:29.035Z,50.70
2017-06-02T10:25:57.847Z,50.90
2017-06-02T10:28:26.691Z,50.70
2017-06-02T10:30:55.499Z,51.10
2017-06-02T10:33:24.305Z,51.20
2017-06-02T10:35:53.117Z,51.80
2017-06-02T10:38:21.936Z,52.60
2017-06-02T10:40:50.784Z,52.80
2017-06-02T10:43:19.597Z,51.90
2017-06-02T10:45:48.399Z,52.20
2017-06-02T10:48:17.227Z,51.90
2017-06-02T10:50:46.036Z,51.80
2017-06-02T10:53:14.867Z,52.20
2017-06-02T10:55:43.677Z,52.50
2017-06-02T10:58:12.486Z,52.90
2017-06-02T11:00:41.303Z,53.20
2017-06-02T11:03:10.120Z,53.50
2017-06-02T11:05:39.513Z,54.30
2017-06-02T11:08:08.308Z,54.60
2017-06-02T11:10:37.122Z,54.10
2017-06-02T11:13:05.943Z,54.50
2017-06-02T11:15:34.773Z,54.70
2017-06-02T11:18:03.575Z,54.70
2017-06-02T11:20:32.400Z,53.30
2017-06-02T11:23:01.203Z,52.00
2017-06-02T11:25:30.123Z,51.80
2017-06-02T11:27:58.922Z,51.30
2017-06-02T11:30:27.734Z,51.00
2017-06-02T11:32:56.561Z,51.00
2017-06-02T11:35:25.386Z,50.90
2017-06-02T11:37:54.227Z,51.10
2017-06-02T11:40:23.046Z,51.10
2017-06-02T11:42:51.851Z,51.10
2017-06-02T11:45:20.688Z,50.60
2017-06-02T11:47:49.491Z,49.70
2017-06-02T11:50:18.337Z,50.30
2017-06-02T11:52:47.147Z,50.70
2017-06-02T11:55:15.959Z,51.30
2017-06-02T11:57:44.799Z,50.80
2017-06-02T12:00:13.616Z,50.20
2017-06-02T12:02:42.447Z,49.70
2017-06-02T12:05:11.268Z,49.30
2017-06-02T12:07:40.111Z,49.50
2017-06-02T12:10:08.953Z,50.20
2017-06-02T12:12:37.768Z,49.60
2017-06-02T12:15:06.601Z,49.50
2017-06-02T12:17:35.440Z,49.80
2017-06-02T12:20:04.243Z,48.70
2017-06-02T12:22:33.058Z,46.30
2017-06-02T12:25:01.903Z,43.80
2017-06-02T12:27:30.730Z,41.50
2017-06-02T12:29:59.563Z,39.50
2017-06-02T12:32:28.382Z,37.70
2017-06-02T12:34:57.225Z,36.00
2017-06-02T12:37:26.043Z,35.00
2017-06-02T12:39:54.862Z,34.30
2017-06-02T12:42:23.680Z,33.80
2017-06-02T12:44:52.513Z,33.20
2017-06-02T12:47:21.347Z,33.10
2017-06-02T12:49:50.198Z,32.80
2017-06-02T12:52:18.991Z,32.50
2017-06-02T12:54:47.914Z,32.20
2017-06-02T12:57:16.739Z,32.20
2017-06-02T12:59:45.543Z,32.10
2017-06-02T13:02:14.375Z,32.10
2017-06-02T13:04:43.188Z,32.20
2017-06-02T13:07:12.009Z,32.30
2017-06-02T13:09:40.845Z,32.40
2017-06-02T13:12:09.667Z,32.40
2017-06-02T13:14:38.491Z,32.40
2017-06-02T13:17:07.309Z,32.30
2017-06-02T13:19:36.116Z,32.30
2017-06-02T13:22:04.947Z,32.50
2017-06-02T13:24:33.766Z,32.80
2017-06-02T13:27:02.583Z,33.00
2017-06-02T13:29:31.399Z,33.30
2017-06-02T13:32:00.240Z,33.30
2017-06-02T13:34:29.079Z,33.10
2017-06-02T13:36:57.887Z,33.00
2017-06-02T13:39:26.702Z,32.80
2017-06-02T13:41:55.534Z,32.90
2017-06-02T13:44:24.343Z,32.90
2017-06-02T13:46:53.165Z,32.90
2017-06-02T13:49:22.013Z,32.90
2017-06-02T13:51:50.820Z,32.90
2017-06-02T13:54:19.656Z,33.10
2017-06-02T13:56:48.508Z,33.30
2017-06-02T13:59:17.317Z,33.50
2017-06-02T14:01:46.170Z,33.80
2017-06-02T14:04:14.967Z,34.00
2017-06-02T14:06:43.811Z,33.80
2017-06-02T14:09:12.610Z,33.60
2017-06-02T14:11:41.436Z,33.50
2017-06-02T14:14:10.270Z,33.40
2017-06-02T14:16:39.073Z,33.30
2017-06-02T14:19:07.896Z,33.20
2017-06-02T14:21:36.750Z,33.40
2017-06-02T14:24:05.577Z,33.50
2017-06-02T14:26:34.380Z,33.80
2017-06-02T14:29:03.209Z,33.70
2017-06-02T14:31:32.045Z,33.50
2017-06-02T14:34:00.887Z,33.60
2017-06-02T14:36:29.712Z,33.80
2017-06-02T14:38:58.551Z,34.00
2017-06-02T14:41:27.367Z,33.90
2017-06-02T14:43:56.200Z,33.90
2017-06-02T14:46:25.027Z,33.80
2017-06-02T14:48:53.831Z,33.60
2017-06-02T14:51:22.652Z,33.60
2017-06-02T14:53:51.490Z,33.50
2017-06-02T14:56:20.295Z,33.30
2017-06-02T14:58:49.119Z,33.30
2017-06-02T15:01:17.952Z,33.30
2017-06-02T15:03:46.787Z,33.20
2017-06-02T15:06:15.592Z,32.80
2017-06-02T15:08:44.421Z,32.60
2017-06-02T15:11:13.227Z,32.50
2017-06-02T15:13:42.051Z,32.30
2017-06-02T15:16:10.868Z,32.30
2017-06-02T15:18:39.895Z,32.10
2017-06-02T15:21:08.699Z,32.20
2017-06-02T15:23:37.532Z,32.20
2017-06-02T15:26:06.344Z,32.30
2017-06-02T15:28:35.152Z,32.30
2017-06-02T15:31:03.972Z,32.40
2017-06-02T15:33:32.815Z,32.40
2017-06-02T15:36:01.632Z,32.40
2017-06-02T15:38:30.452Z,32.50
2017-06-02T15:40:59.281Z,32.60
2017-06-02T15:43:28.090Z,32.60
2017-06-02T15:48:32.191Z,32.50
2017-06-02T15:51:01.023Z,32.50
2017-06-02T15:53:29.861Z,32.30
2017-06-02T15:55:58.676Z,32.10
2017-06-02T15:58:27.474Z,32.00
2017-06-02T16:00:56.307Z,31.80
2017-06-02T16:03:25.126Z,31.80
2017-06-02T16:05:53.941Z,31.70
2017-06-02T16:08:22.800Z,31.60
2017-06-02T16:10:51.610Z,31.50
2017-06-02T16:13:20.455Z,31.40
2017-06-02T16:15:49.334Z,31.20
2017-06-02T16:18:18.172Z,31.20
2017-06-02T16:20:46.988Z,31.10
2017-06-02T16:23:15.812Z,31.10
2017-06-02T16:25:44.619Z,31.00
2017-06-02T16:28:13.450Z,30.80
2017-06-02T16:30:42.271Z,30.90
2017-06-02T16:33:11.108Z,31.00
2017-06-02T16:35:39.931Z,30.90
2017-06-02T16:38:08.771Z,30.80
2017-06-02T16:40:37.572Z,30.70
2017-06-02T16:43:06.427Z,30.50
2017-06-02T16:45:35.240Z,30.40
2017-06-02T16:48:04.064Z,30.20
2017-06-02T16:50:32.898Z,30.00
2017-06-02T16:53:01.722Z,29.90
2017-06-02T16:55:30.543Z,29.70
2017-06-02T16:57:59.379Z,29.60
2017-06-02T17:00:28.196Z,29.50
2017-06-02T17:02:57.025Z,29.50
2017-06-02T17:05:25.878Z,29.30
2017-06-02T17:07:54.669Z,29.30
2017-06-02T17:10:23.494Z,29.30
2017-06-02T17:12:52.316Z,29.20
2017-06-02T17:15:21.137Z,29.20
2017-06-02T17:17:49.985Z,29.20
2017-06-02T17:20:18.803Z,29.30
2017-06-02T17:22:47.647Z,29.20
2017-06-02T17:25:16.495Z,29.10
2017-06-02T17:27:45.315Z,29.20
2017-06-02T17:30:14.119Z,29.20
2017-06-02T17:32:42.950Z,29.30
2017-06-02T17:35:11.836Z,29.20
2017-06-02T17:37:40.673Z,29.30
2017-06-02T17:40:09.488Z,29.20
2017-06-02T17:42:38.304Z,29.30
2017-06-02T17:45:07.868Z,29.40
2017-06-02T17:47:36.723Z,29.40
2017-06-02T17:50:05.516Z,29.20
2017-06-02T17:52:34.335Z,29.10
2017-06-02T17:55:03.146Z,29.10
2017-06-02T17:57:32.006Z,29.10
2017-06-02T18:00:04.567Z,28.90
2017-06-02T18:02:33.388Z,28.90
2017-06-02T18:05:02.195Z,28.80
2017-06-02T18:07:31.641Z,28.80
2017-06-02T18:10:00.456Z,28.90
2017-06-02T18:12:29.272Z,28.80
2017-06-02T18:14:58.086Z,28.80
2017-06-02T18:17:26.892Z,28.80
2017-06-02T18:19:55.730Z,28.60
2017-06-02T18:22:24.550Z,28.50
2017-06-02T18:24:53.371Z,28.50
2017-06-02T18:27:22.194Z,28.50
2017-06-02T18:29:51.046Z,28.50
2017-06-02T18:32:19.875Z,28.50
2017-06-02T18:34:48.719Z,28.50
2017-06-02T18:37:17.580Z,28.40
2017-06-02T18:39:46.412Z,28.10
2017-06-02T18:42:15.228Z,27.70
2017-06-02T18:44:44.019Z,27.20
2017-06-02T18:47:12.883Z,26.60
2017-06-02T18:49:41.703Z,26.30
2017-06-02T18:52:10.504Z,25.60
2017-06-02T18:54:42.023Z,25.20
2017-06-02T18:57:10.831Z,24.90
2017-06-02T18:59:39.637Z,24.70
2017-06-02T19:02:08.443Z,24.40
2017-06-02T19:04:37.296Z,24.20
2017-06-02T19:07:06.117Z,23.80
2017-06-02T19:09:35.852Z,23.60
2017-06-02T19:12:04.699Z,23.50
2017-06-02T19:14:32.772Z,23.40
2017-06-02T19:17:01.630Z,23.10
2017-06-02T19:19:30.474Z,22.60
2017-06-02T19:21:59.300Z,22.20
2017-06-02T19:24:28.147Z,21.80
2017-06-02T19:26:56.965Z,21.70
2017-06-02T19:29:25.784Z,21.60
2017-06-02T19:31:55.535Z,21.50
2017-06-02T19:34:24.347Z,21.60
2017-06-02T19:36:53.176Z,21.50
2017-06-02T19:39:22.003Z,21.50
2017-06-02T19:41:50.936Z,21.50
2017-06-02T19:44:19.734Z,21.50
2017-06-02T19:46:48.575Z,21.50
2017-06-02T19:49:17.409Z,21.50
2017-06-02T19:51:46.220Z,21.50
2017-06-02T19:54:15.397Z,21.60
2017-06-02T19:56:44.378Z,21.60
2017-06-02T19:59:13.221Z,21.60
2017-06-02T20:01:42.040Z,21.70
2017-06-02T20:04:10.873Z,21.70
2017-06-02T20:06:39.727Z,21.70
2017-06-02T20:09:08.560Z,21.80
2017-06-02T20:11:37.379Z,21.80
2017-06-02T20:14:06.236Z,21.80
2017-06-02T20:16:35.052Z,21.70
2017-06-02T20:19:03.892Z,21.60
2017-06-02T20:21:32.747Z,21.70
2017-06-02T20:24:01.593Z,21.70
2017-06-02T20:26:30.426Z,21.70
2017-06-02T20:28:59.239Z,21.70
2017-06-02T20:31:28.083Z,21.70
2017-06-02T20:33:56.905Z,21.60
2017-06-02T20:36:25.747Z,21.60
2017-06-02T20:38:54.578Z,21.60
2017-06-02T20:41:23.403Z,21.60
2017-06-02T20:43:52.253Z,21.60
2017-06-02T20:46:21.078Z,21.50
2017-06-02T20:48:49.933Z,21.50
2017-06-02T20:51:18.773Z,21.50
2017-06-02T20:53:47.592Z,21.60
2017-06-02T20:56:16.440Z,21.60
2017-06-02T20:58:45.261Z,21.60
2017-06-02T21:01:14.100Z,21.50
2017-06-02T21:03:42.928Z,21.50
2017-06-02T21:06:11.755Z,21.50
2017-06-02T21:08:40.624Z,21.50
2017-06-02T21:11:09.452Z,21.50
2017-06-02T21:13:38.298Z,21.50
2017-06-02T21:16:07.144Z,21.50
2017-06-02T21:18:35.968Z,21.40
2017-06-02T21:21:04.796Z,21.40
2017-06-02T21:23:33.634Z,21.40
2017-06-02T21:26:02.468Z,21.40
2017-06-02T21:28:31.293Z,21.40
2017-06-02T21:31:00.143Z,21.30
2017-06-02T21:33:28.989Z,21.30
2017-06-02T21:35:57.795Z,21.30
2017-06-02T21:38:26.687Z,21.30
2017-06-02T21:40:55.501Z,21.30
2017-06-02T21:43:24.332Z,21.20
2017-06-02T21:45:53.180Z,21.20
2017-06-02T21:48:21.983Z,21.20
2017-06-02T21:50:50.868Z,21.20
2017-06-02T21:53:19.711Z,21.20
2017-06-02T21:55:48.527Z,21.20
2017-06-02T21:58:17.367Z,21.20
2017-06-02T22:00:46.207Z,21.20
2017-06-02T22:03:15.044Z,21.30
2017-06-02T22:05:43.878Z,21.40
2017-06-02T22:08:12.728Z,21.40
2017-06-02T22:10:41.539Z,21.40
2017-06-02T22:13:10.357Z,21.50
2017-06-02T22:15:39.208Z,21.50
2017-06-02T22:18:08.029Z,21.50
2017-06-02T22:20:36.850Z,21.60
2017-06-02T22:23:05.695Z,21.70
2017-06-02T22:25:34.503Z,21.80
2017-06-02T22:28:03.339Z,21.80
2017-06-02T22:30:32.167Z,21.80
2017-06-02T22:33:00.986Z,21.80
2017-06-02T22:35:29.813Z,21.80
2017-06-02T22:37:58.647Z,21.80
2017-06-02T22:40:27.463Z,21.80
2017-06-02T22:42:56.298Z,21.80
2017-06-02T22:45:25.133Z,21.70
2017-06-02T22:47:53.946Z,21.70
2017-06-02T22:50:22.777Z,21.70
2017-06-02T22:52:51.607Z,21.80
2017-06-02T22:55:20.460Z,21.80
2017-06-02T22:57:49.294Z,21.80
2017-06-02T23:00:18.096Z,21.80
2017-06-02T23:02:46.926Z,21.70
2017-06-02T23:05:15.749Z,21.70
2017-06-02T23:07:44.572Z,21.70
2017-06-02T23:10:13.444Z,21.80
2017-06-02T23:12:42.259Z,21.80
2017-06-02T23:15:11.079Z,21.80
2017-06-02T23:17:39.900Z,21.80
2017-06-02T23:20:08.760Z,21.80
2017-06-02T23:22:37.576Z,21.80
2017-06-02T23:25:06.375Z,21.70
2017-06-02T23:27:35.217Z,21.70
2017-06-02T23:30:04.034Z,21.70
2017-06-02T23:32:32.867Z,21.70
2017-06-02T23:35:01.689Z,21.70
2017-06-02T23:37:30.502Z,21.80
2017-06-02T23:39:59.324Z,21.70
2017-06-02T23:42:28.162Z,21.70
2017-06-02T23:44:56.984Z,21.70
2017-06-02T23:47:25.814Z,21.70
2017-06-02T23:49:54.631Z,21.70
2017-06-02T23:52:23.454Z,21.80
2017-06-02T23:54:52.282Z,21.80
2017-06-02T23:57:21.098Z,21.80
2017-06-02T23:59:49.950Z,21.70
